createdAt,value
2019-02-18T00:13:01.368Z,2.0
2019-02-18T00:28:01.457Z,2.2
2019-02-18T00:33:01.384Z,2.3
2019-02-18T00:38:01.448Z,2.5
2019-02-18T00:43:01.310Z,2.7
2019-02-18T00:48:01.337Z,2.8
2019-02-18T01:03:01.102Z,2.7
2019-02-18T01:18:01.165Z,2.8
2019-02-18T01:28:01.358Z,2.9
2019-02-18T01:33:01.425Z,3.0
2019-02-18T01:43:01.450Z,2.9
2019-02-18T01:48:01.388Z,2.8
2019-02-18T01:53:01.341Z,2.6
2019-02-18T01:58:01.448Z,2.4
2019-02-18T02:03:01.349Z,2.3
2019-02-18T02:08:01.409Z,2.2
2019-02-18T02:13:01.326Z,2.1
2019-02-18T02:18:01.339Z,2.0
2019-02-18T02:23:01.325Z,1.9
2019-02-18T02:28:01.327Z,1.8
2019-02-18T02:38:08.284Z,1.7
2019-02-18T02:48:01.424Z,1.6
2019-02-18T02:53:01.378Z,1.5
2019-02-18T02:58:01.375Z,1.4
2019-02-18T03:13:01.349Z,1.4
2019-02-18T03:18:01.373Z,1.5
2019-02-18T03:28:01.487Z,1.6
2019-02-18T03:33:01.332Z,1.7
2019-02-18T03:48:01.368Z,1.7
2019-02-18T03:53:01.306Z,1.6
2019-02-18T04:03:01.380Z,1.7
2019-02-18T04:18:01.398Z,1.7
2019-02-18T04:28:01.366Z,1.6
2019-02-18T04:38:01.400Z,1.5
2019-02-18T04:53:01.432Z,1.5
2019-02-18T04:58:01.466Z,1.6
2019-02-18T05:03:01.437Z,1.7
2019-02-18T05:08:01.456Z,1.8
2019-02-18T05:13:01.445Z,1.9
2019-02-18T05:18:01.383Z,2.0
2019-02-18T05:33:01.641Z,2.1
2019-02-18T05:48:01.340Z,2.1
2019-02-18T06:03:01.324Z,2.1
2019-02-18T06:08:02.240Z,2.2
2019-02-18T06:23:01.320Z,2.2
2019-02-18T06:28:01.295Z,2.3
2019-02-18T06:43:01.318Z,2.3
2019-02-18T06:48:01.317Z,2.4
2019-02-18T07:03:01.419Z,2.4
2019-02-18T07:19:01.323Z,2.4
2019-02-18T07:24:01.308Z,2.5
2019-02-18T07:29:01.339Z,2.6
2019-02-18T07:34:01.388Z,2.7
2019-02-18T07:39:01.429Z,2.8
2019-02-18T07:44:01.320Z,2.9
2019-02-18T07:49:03.515Z,3.0
2019-02-18T07:54:01.331Z,3.1
2019-02-18T07:59:01.291Z,3.3
2019-02-18T08:04:01.333Z,3.4
2019-02-18T08:10:12.603Z,3.6
2019-02-18T08:15:01.313Z,3.8
2019-02-18T08:20:01.342Z,4.0
2019-02-18T08:25:01.322Z,4.1
2019-02-18T08:30:01.421Z,4.3
2019-02-18T08:35:01.540Z,4.5
2019-02-18T08:40:01.343Z,4.7
2019-02-18T08:45:01.704Z,4.9
2019-02-18T08:50:02.296Z,5.0
2019-02-18T08:55:01.312Z,5.2
2019-02-18T09:00:01.501Z,5.3
2019-02-18T09:05:01.391Z,5.5
2019-02-18T09:10:01.401Z,5.6
2019-02-18T09:15:01.686Z,5.8
2019-02-18T09:20:01.328Z,6.0
2019-02-18T09:25:01.552Z,6.2
2019-02-18T09:30:01.580Z,6.3
2019-02-18T09:35:02.254Z,6.5
2019-02-18T09:40:01.350Z,6.6
2019-02-18T09:45:01.609Z,6.9
2019-02-18T09:50:01.394Z,7.0
2019-02-18T09:55:01.531Z,7.2
2019-02-18T10:00:01.707Z,7.4
2019-02-18T10:05:01.461Z,7.6
2019-02-18T10:10:01.400Z,7.8
2019-02-18T10:15:01.619Z,7.9
2019-02-18T10:20:01.406Z,8.1
2019-02-18T10:25:01.410Z,8.3
2019-02-18T10:30:01.496Z,8.4
2019-02-18T10:35:01.483Z,8.6
2019-02-18T10:40:01.334Z,8.8
2019-02-18T10:45:01.552Z,9.0
2019-02-18T10:55:01.403Z,9.2
2019-02-18T11:00:01.562Z,9.3
2019-02-18T11:05:01.420Z,9.4
2019-02-18T11:10:01.314Z,9.5
2019-02-18T11:15:01.637Z,9.7
2019-02-18T11:25:01.383Z,9.9
2019-02-18T11:30:01.477Z,10.0
2019-02-18T11:35:01.488Z,10.2
2019-02-18T11:40:01.389Z,10.3
2019-02-18T11:45:01.779Z,10.5
2019-02-18T11:55:01.477Z,10.6
2019-02-18T12:01:01.354Z,10.8
2019-02-18T12:06:01.467Z,10.9
2019-02-18T12:11:01.395Z,11.0
2019-02-18T12:16:01.496Z,11.1
2019-02-18T12:21:01.319Z,11.2
2019-02-18T12:26:01.451Z,11.3
2019-02-18T12:31:01.321Z,11.4
2019-02-18T12:36:01.682Z,11.5
2019-02-18T12:41:01.389Z,11.6
2019-02-18T12:46:01.347Z,11.7
2019-02-18T12:51:03.450Z,11.8
2019-02-18T12:56:01.594Z,11.9
2019-02-18T13:01:01.323Z,12.0
2019-02-18T13:06:01.486Z,12.1
2019-02-18T13:16:01.200Z,12.2
2019-02-18T13:21:01.385Z,12.3
2019-02-18T13:26:01.392Z,12.4
2019-02-18T13:36:01.408Z,12.5
2019-02-18T13:51:01.326Z,12.5
2019-02-18T14:01:01.212Z,12.4
2019-02-18T14:11:01.549Z,12.3
2019-02-18T14:21:01.346Z,12.2
2019-02-18T14:31:01.194Z,12.1
2019-02-18T14:46:01.182Z,12.0
2019-02-18T15:01:01.356Z,11.9
2019-02-18T15:06:01.564Z,11.8
2019-02-18T15:16:01.484Z,11.7
2019-02-18T15:21:01.487Z,11.6
2019-02-18T15:26:01.548Z,11.5
2019-02-18T15:31:01.481Z,11.4
2019-02-18T15:36:01.546Z,11.2
2019-02-18T15:41:01.471Z,11.1
2019-02-18T15:46:01.470Z,10.9
2019-02-18T15:51:01.488Z,10.8
2019-02-18T15:56:01.457Z,10.6
2019-02-18T16:01:02.992Z,10.4
2019-02-18T16:06:01.816Z,10.2
2019-02-18T16:11:01.476Z,10.1
2019-02-18T16:16:02.116Z,9.9
2019-02-18T16:21:01.789Z,9.8
2019-02-18T16:26:01.450Z,9.7
2019-02-18T16:31:01.597Z,9.6
2019-02-18T16:36:01.541Z,9.5
2019-02-18T16:41:01.828Z,9.4
2019-02-18T16:46:01.789Z,9.2
2019-02-18T16:51:01.482Z,9.1
2019-02-18T16:56:01.529Z,8.9
2019-02-18T17:01:01.479Z,8.7
2019-02-18T17:06:01.500Z,8.4
2019-02-18T17:11:01.472Z,8.3
2019-02-18T17:16:01.532Z,8.1
2019-02-18T17:26:01.527Z,8.0
2019-02-18T17:36:02.582Z,7.9
2019-02-18T17:46:01.806Z,7.8
2019-02-18T17:51:01.309Z,7.7
2019-02-18T18:01:01.638Z,7.6
2019-02-18T18:06:01.477Z,7.5
2019-02-18T18:16:01.390Z,7.4
2019-02-18T18:21:01.407Z,7.3
2019-02-18T18:26:01.388Z,7.1
2019-02-18T18:31:01.425Z,6.9
2019-02-18T18:36:01.500Z,6.6
2019-02-18T18:41:01.323Z,6.4
2019-02-18T18:46:01.541Z,6.2
2019-02-18T18:51:01.389Z,6.0
2019-02-18T18:56:01.532Z,5.8
2019-02-18T19:01:01.386Z,5.7
2019-02-18T19:16:01.178Z,5.7
2019-02-18T19:21:01.310Z,5.8
2019-02-18T19:26:01.645Z,5.7
2019-02-18T19:31:01.328Z,5.6
2019-02-18T19:41:01.419Z,5.5
2019-02-18T19:46:01.474Z,5.4
2019-02-18T19:56:01.450Z,5.3
2019-02-18T20:06:01.390Z,5.2
2019-02-18T20:11:01.326Z,5.1
2019-02-18T20:16:01.317Z,5.0
2019-02-18T20:26:01.388Z,4.9
2019-02-18T20:41:01.426Z,4.8
2019-02-18T20:46:01.590Z,4.7
2019-02-18T20:51:01.389Z,4.6
2019-02-18T20:56:01.463Z,4.5
2019-02-18T21:01:01.384Z,4.4
2019-02-18T21:06:01.378Z,4.3
2019-02-18T21:16:01.169Z,4.2
2019-02-18T21:31:01.167Z,4.2
2019-02-18T21:41:01.676Z,4.1
2019-02-18T21:51:01.329Z,4.0
2019-02-18T22:06:01.334Z,4.0
2019-02-18T22:21:01.220Z,4.1
2019-02-18T22:26:02.600Z,4.3
2019-02-18T22:31:01.317Z,4.4
2019-02-18T22:36:01.358Z,4.6
2019-02-18T22:41:01.436Z,4.7
2019-02-18T22:46:01.328Z,4.8
2019-02-18T23:01:01.181Z,4.7
2019-02-18T23:17:01.158Z,4.7
2019-02-18T23:22:01.393Z,4.8
2019-02-18T23:37:01.161Z,4.8
2019-02-18T23:42:01.393Z,4.7
2019-02-18T23:57:01.460Z,4.7
